createdAt,value
2023-04-16T00:00:43.074Z,5.53
2023-04-16T00:03:11.217Z,4.80
2023-04-16T00:05:38.812Z,5.35
2023-04-16T00:08:06.288Z,4.95
2023-04-16T00:10:37.067Z,4.97
2023-04-16T00:13:04.497Z,5.45
2023-04-16T00:15:31.958Z,5.03
2023-04-16T00:17:59.721Z,5.15
2023-04-16T00:20:27.164Z,5.22
2023-04-16T00:22:54.537Z,5.50
2023-04-16T00:25:22.434Z,4.43
2023-04-16T00:27:50.038Z,4.43
2023-04-16T00:30:17.471Z,4.35
2023-04-16T00:32:45.333Z,5.07
2023-04-16T00:35:12.818Z,6.20
2023-04-16T00:37:40.326Z,3.90
2023-04-16T00:40:08.493Z,3.90
2023-04-16T00:42:37.043Z,3.95
2023-04-16T00:45:05.766Z,4.72
2023-04-16T00:47:33.730Z,5.12
2023-04-16T00:50:03.231Z,3.75
2023-04-16T00:52:32.329Z,5.20
2023-04-16T00:55:00.223Z,4.10
2023-04-16T00:57:28.020Z,4.12
2023-04-16T00:59:55.842Z,4.37
2023-04-16T01:02:23.878Z,3.67
2023-04-16T01:04:51.685Z,4.22
2023-04-16T01:07:19.134Z,4.25
2023-04-16T01:09:46.952Z,4.75
2023-04-16T01:12:14.513Z,7.07
2023-04-16T01:14:41.943Z,5.87
2023-04-16T01:17:09.635Z,4.55
2023-04-16T01:19:37.187Z,4.07
2023-04-16T01:22:04.868Z,3.95
2023-04-16T01:24:32.804Z,7.87
2023-04-16T01:27:00.632Z,4.47
2023-04-16T01:29:28.096Z,3.55
2023-04-16T01:31:56.210Z,7.32
2023-04-16T01:34:23.727Z,4.07
2023-04-16T01:36:51.937Z,4.70
2023-04-16T01:39:19.795Z,4.93
2023-04-16T01:41:47.467Z,5.80
2023-04-16T01:44:14.865Z,3.95
2023-04-16T01:49:11.728Z,4.45
2023-04-16T01:51:39.370Z,5.47
2023-04-16T01:54:07.262Z,4.57
2023-04-16T01:56:34.716Z,5.22
2023-04-16T01:59:02.247Z,5.18
2023-04-16T02:01:31.874Z,6.37
2023-04-16T02:03:59.878Z,4.93
2023-04-16T02:06:27.618Z,4.43
2023-04-16T02:08:55.025Z,5.18
2023-04-16T02:11:22.691Z,4.87
2023-04-16T02:13:50.519Z,5.97
2023-04-16T02:16:18.481Z,6.65
2023-04-16T02:18:47.198Z,5.90
2023-04-16T02:21:15.344Z,6.37
2023-04-16T02:23:45.972Z,8.13
2023-04-16T02:26:13.760Z,5.80
2023-04-16T02:28:41.805Z,6.12
2023-04-16T02:31:09.670Z,6.60
2023-04-16T02:33:38.871Z,6.87
2023-04-16T02:36:07.144Z,6.35
2023-04-16T02:38:34.627Z,6.62
2023-04-16T02:41:02.082Z,7.12
2023-04-16T02:43:29.845Z,7.32
2023-04-16T02:45:59.219Z,8.35
2023-04-16T02:48:26.922Z,9.05
2023-04-16T02:50:54.953Z,10.25
2023-04-16T02:53:22.460Z,12.50
2023-04-16T02:55:55.638Z,12.75
2023-04-16T02:58:25.012Z,13.20
2023-04-16T03:00:53.454Z,13.55
2023-04-16T03:03:21.816Z,12.70
2023-04-16T03:05:49.913Z,15.32
2023-04-16T03:08:17.360Z,12.57
2023-04-16T03:10:44.818Z,14.40
2023-04-16T03:13:12.511Z,15.05
2023-04-16T03:15:40.143Z,13.30
2023-04-16T03:18:07.518Z,14.87
2023-04-16T03:20:35.310Z,13.88
2023-04-16T03:23:02.690Z,13.50
2023-04-16T03:25:30.058Z,14.60
2023-04-16T03:27:57.748Z,14.38
2023-04-16T03:30:25.345Z,13.90
2023-04-16T03:32:52.928Z,13.48
2023-04-16T03:35:21.294Z,13.60
2023-04-16T03:37:50.246Z,15.45
2023-04-16T03:40:18.260Z,14.00
2023-04-16T03:42:46.145Z,16.42
2023-04-16T03:45:13.655Z,15.82
2023-04-16T03:47:42.215Z,16.15
2023-04-16T03:50:11.607Z,14.93
2023-04-16T03:52:39.778Z,13.48
2023-04-16T03:55:07.850Z,13.82
2023-04-16T03:57:35.602Z,17.75
2023-04-16T04:00:04.213Z,13.62
2023-04-16T04:02:41.676Z,14.20
2023-04-16T04:05:10.649Z,14.70
2023-04-16T04:07:38.309Z,14.02
2023-04-16T04:10:06.935Z,13.50
2023-04-16T04:12:35.809Z,15.10
2023-04-16T04:15:03.356Z,13.55
2023-04-16T04:17:30.860Z,14.60
2023-04-16T04:20:01.194Z,16.02
2023-04-16T04:22:30.864Z,14.98
2023-04-16T04:24:58.717Z,12.90
2023-04-16T04:27:27.272Z,12.95
2023-04-16T04:29:54.750Z,12.55
2023-04-16T04:32:22.880Z,12.50
2023-04-16T04:34:50.701Z,14.25
2023-04-16T04:37:18.146Z,13.77
2023-04-16T04:39:46.147Z,13.07
2023-04-16T04:42:13.660Z,12.30
2023-04-16T04:44:41.284Z,14.95
2023-04-16T04:47:09.093Z,14.80
2023-04-16T04:49:36.519Z,15.20
2023-04-16T04:52:04.032Z,14.50
2023-04-16T04:54:32.805Z,12.35
2023-04-16T04:57:00.354Z,12.13
2023-04-16T04:59:28.489Z,12.63
2023-04-16T05:01:56.430Z,11.70
2023-04-16T05:04:23.890Z,12.02
2023-04-16T05:06:51.417Z,10.70
2023-04-16T05:09:19.068Z,11.50
2023-04-16T05:11:46.577Z,17.10
2023-04-16T05:14:13.995Z,12.70
2023-04-16T05:16:41.863Z,12.40
2023-04-16T05:19:09.528Z,13.52
2023-04-16T05:21:37.101Z,13.00
2023-04-16T05:24:05.108Z,10.18
2023-04-16T05:26:32.508Z,9.73
2023-04-16T05:28:59.921Z,10.82
2023-04-16T05:31:27.626Z,10.13
2023-04-16T05:33:54.998Z,10.73
2023-04-16T05:36:22.591Z,10.35
2023-04-16T05:38:50.298Z,9.77
2023-04-16T05:41:17.784Z,9.38
2023-04-16T05:43:45.237Z,11.18
2023-04-16T05:46:12.944Z,9.50
2023-04-16T05:48:40.354Z,12.95
2023-04-16T05:51:07.753Z,10.45
2023-04-16T05:53:35.573Z,11.60
2023-04-16T05:56:03.232Z,10.15
2023-04-16T05:58:30.659Z,12.82
2023-04-16T06:00:58.300Z,9.70
2023-04-16T06:03:26.119Z,8.98
2023-04-16T06:05:53.665Z,9.18
2023-04-16T06:08:21.100Z,11.73
2023-04-16T06:10:49.145Z,10.02
2023-04-16T06:13:17.071Z,11.32
2023-04-16T06:15:44.518Z,10.20
2023-04-16T06:18:12.262Z,9.82
2023-04-16T06:20:39.685Z,9.45
2023-04-16T06:23:07.104Z,10.25
2023-04-16T06:25:34.775Z,9.50
2023-04-16T06:28:02.446Z,13.73
2023-04-16T06:30:30.121Z,10.13
2023-04-16T06:32:57.915Z,9.80
2023-04-16T06:35:25.477Z,11.32
2023-04-16T06:37:52.906Z,9.20
2023-04-16T06:40:20.593Z,10.55
2023-04-16T06:42:47.961Z,12.55
2023-04-16T06:45:15.520Z,8.57
2023-04-16T06:47:43.302Z,8.43
2023-04-16T06:50:11.146Z,8.18
2023-04-16T06:52:38.568Z,6.65
2023-04-16T06:55:08.275Z,7.62
2023-04-16T06:57:37.516Z,6.35
2023-04-16T07:00:06.084Z,6.62
2023-04-16T07:02:33.899Z,8.23
2023-04-16T07:05:01.375Z,6.72
2023-04-16T07:07:28.843Z,7.25
2023-04-16T07:09:56.550Z,4.47
2023-04-16T07:12:24.137Z,5.37
2023-04-16T07:14:51.601Z,5.75
2023-04-16T07:17:19.282Z,6.57
2023-04-16T07:19:46.668Z,7.20
2023-04-16T07:22:14.086Z,6.15
2023-04-16T07:24:41.736Z,7.12
2023-04-16T07:27:09.141Z,6.22
2023-04-16T07:29:36.505Z,6.25
2023-04-16T07:32:04.287Z,6.20
2023-04-16T07:34:31.701Z,5.15
2023-04-16T07:36:59.068Z,4.53
2023-04-16T07:39:26.759Z,4.60
2023-04-16T07:41:54.241Z,4.68
2023-04-16T07:44:21.642Z,5.18
2023-04-16T07:46:49.336Z,5.22
2023-04-16T07:49:16.733Z,4.50
2023-04-16T07:51:44.216Z,4.53
2023-04-16T07:54:11.934Z,6.57
2023-04-16T07:56:39.543Z,4.18
2023-04-16T07:59:21.147Z,3.33
2023-04-16T08:01:50.312Z,3.78
2023-04-16T08:04:23.137Z,4.15
2023-04-16T08:06:51.581Z,2.47
2023-04-16T08:09:21.110Z,3.70
2023-04-16T08:11:49.864Z,4.65
2023-04-16T08:14:17.548Z,3.67
2023-04-16T08:16:45.538Z,2.58
2023-04-16T08:19:13.336Z,3.47
2023-04-16T08:21:40.933Z,6.72
2023-04-16T08:24:08.595Z,4.25
2023-04-16T08:26:36.005Z,2.25
2023-04-16T08:29:03.625Z,5.03
2023-04-16T08:31:31.832Z,3.33
2023-04-16T08:34:00.411Z,3.90
2023-04-16T08:36:27.963Z,4.35
2023-04-16T08:38:55.658Z,3.28
2023-04-16T08:41:24.240Z,2.83
2023-04-16T08:43:54.433Z,2.40
2023-04-16T08:46:22.973Z,2.40
2023-04-16T08:48:51.873Z,3.50
2023-04-16T08:51:20.021Z,2.30
2023-04-16T08:53:54.149Z,1.98
2023-04-16T08:56:23.614Z,2.30
2023-04-16T08:58:51.895Z,3.22
2023-04-16T09:01:19.905Z,2.25
2023-04-16T09:03:48.774Z,2.30
2023-04-16T09:06:17.500Z,3.22
2023-04-16T09:08:46.293Z,2.95
2023-04-16T09:11:14.427Z,2.50
2023-04-16T09:13:42.068Z,2.05
2023-04-16T09:16:09.980Z,2.53
2023-04-16T09:18:37.590Z,2.30
2023-04-16T09:21:05.643Z,2.45
2023-04-16T09:23:33.326Z,2.60
2023-04-16T09:26:00.886Z,2.53
2023-04-16T09:28:47.762Z,4.95
2023-04-16T09:31:19.439Z,3.15
2023-04-16T09:34:07.374Z,3.55
2023-04-16T09:36:35.868Z,2.95
2023-04-16T09:39:03.929Z,2.28
2023-04-16T09:41:32.887Z,4.68
2023-04-16T09:44:04.134Z,7.32
2023-04-16T09:46:34.965Z,2.90
2023-04-16T09:49:09.781Z,3.55
2023-04-16T09:51:38.863Z,4.37
2023-04-16T09:54:06.827Z,4.47
2023-04-16T09:56:40.326Z,9.45
2023-04-16T09:59:09.445Z,3.35
2023-04-16T10:01:37.799Z,4.05
2023-04-16T10:04:06.962Z,5.50
2023-04-16T10:06:34.426Z,4.78
2023-04-16T10:09:01.958Z,4.07
2023-04-16T10:11:29.873Z,3.17
2023-04-16T10:13:57.213Z,4.25
2023-04-16T10:16:25.022Z,3.22
2023-04-16T10:18:54.132Z,3.72
2023-04-16T10:21:21.664Z,5.25
2023-04-16T10:23:52.540Z,4.97
2023-04-16T10:26:21.273Z,2.95
2023-04-16T10:28:48.722Z,3.78
2023-04-16T10:31:16.401Z,3.28
2023-04-16T10:33:44.463Z,2.42
2023-04-16T10:36:16.451Z,4.53
2023-04-16T10:41:11.398Z,4.78
2023-04-16T10:43:41.342Z,4.40
2023-04-16T10:46:31.253Z,2.87
2023-04-16T10:49:03.229Z,1.70
2023-04-16T10:54:17.115Z,2.97
2023-04-16T10:56:45.891Z,5.25
2023-04-16T10:59:13.636Z,2.80
2023-04-16T11:01:45.044Z,2.42
2023-04-16T11:04:21.835Z,4.78
2023-04-16T11:07:11.637Z,1.55
2023-04-16T11:09:59.296Z,1.20
2023-04-16T11:12:37.544Z,1.48
2023-04-16T11:15:07.868Z,1.58
2023-04-16T11:17:42.919Z,2.70
2023-04-16T11:20:19.332Z,2.08
2023-04-16T11:22:48.928Z,1.95
2023-04-16T11:25:34.453Z,1.70
2023-04-16T11:28:02.333Z,2.12
2023-04-16T11:30:33.853Z,3.15
2023-04-16T11:33:11.632Z,2.37
2023-04-16T11:35:39.937Z,2.67
2023-04-16T11:38:07.715Z,1.27
2023-04-16T11:40:36.048Z,2.33
2023-04-16T11:43:15.322Z,1.83
2023-04-16T11:46:12.791Z,3.05
2023-04-16T11:48:51.793Z,2.37
2023-04-16T11:51:20.599Z,1.83
2023-04-16T11:53:50.050Z,2.20
2023-04-16T11:56:28.675Z,1.40
2023-04-16T11:59:13.434Z,1.73
2023-04-16T12:01:42.111Z,2.33
2023-04-16T12:04:09.968Z,2.03
2023-04-16T12:06:37.795Z,3.67
2023-04-16T12:09:24.989Z,3.15
2023-04-16T12:11:53.430Z,1.52
2023-04-16T12:14:21.489Z,3.20
2023-04-16T12:16:48.948Z,3.53
2023-04-16T12:19:16.736Z,1.67
2023-04-16T12:21:46.337Z,1.17
2023-04-16T12:24:20.881Z,1.98
2023-04-16T12:26:52.593Z,2.80
2023-04-16T12:29:27.498Z,2.22
2023-04-16T12:31:55.321Z,3.25
2023-04-16T12:34:28.993Z,2.60
2023-04-16T12:37:10.600Z,1.23
2023-04-16T12:39:38.020Z,2.42
2023-04-16T12:42:09.839Z,1.12
2023-04-16T12:44:38.095Z,1.83
2023-04-16T12:47:05.653Z,2.85
2023-04-16T12:49:33.175Z,2.00
2023-04-16T12:52:01.935Z,3.33
2023-04-16T12:54:31.127Z,2.30
2023-04-16T12:56:58.536Z,2.62
2023-04-16T12:59:26.218Z,1.37
2023-04-16T13:01:53.711Z,2.97
2023-04-16T13:04:24.197Z,2.03
2023-04-16T13:06:53.358Z,2.83
2023-04-16T13:09:21.016Z,1.75
2023-04-16T13:11:48.433Z,5.78
2023-04-16T13:14:16.073Z,1.85
2023-04-16T13:16:43.460Z,1.40
2023-04-16T13:19:11.107Z,1.37
2023-04-16T13:21:39.125Z,1.83
2023-04-16T13:24:06.872Z,1.17
2023-04-16T13:26:34.230Z,1.55
2023-04-16T13:29:01.968Z,2.53
2023-04-16T13:31:29.514Z,2.03
2023-04-16T13:33:56.955Z,1.77
2023-04-16T13:36:26.983Z,2.85
2023-04-16T13:38:54.929Z,1.42
2023-04-16T13:41:22.396Z,1.42
2023-04-16T13:43:50.051Z,1.10
2023-04-16T13:46:18.885Z,1.83
2023-04-16T13:48:46.878Z,2.80
2023-04-16T13:51:15.535Z,4.10
2023-04-16T13:53:43.011Z,2.35
2023-04-16T13:56:11.116Z,1.10
2023-04-16T13:58:38.914Z,2.50
2023-04-16T14:01:06.414Z,2.72
2023-04-16T14:03:38.501Z,1.60
2023-04-16T14:06:06.093Z,2.45
2023-04-16T14:08:33.785Z,2.47
2023-04-16T14:11:01.441Z,1.35
2023-04-16T14:13:28.972Z,2.40
2023-04-16T14:15:57.162Z,1.48
2023-04-16T14:18:24.604Z,1.95
2023-04-16T14:20:52.234Z,1.17
2023-04-16T14:23:19.956Z,3.62
2023-04-16T14:25:47.513Z,1.33
2023-04-16T14:28:15.809Z,1.00
2023-04-16T14:30:43.650Z,2.53
2023-04-16T14:33:11.453Z,2.37
2023-04-16T14:35:38.870Z,2.40
2023-04-16T14:38:06.594Z,1.95
2023-04-16T14:40:34.535Z,2.42
2023-04-16T14:43:02.100Z,1.33
2023-04-16T14:45:30.893Z,1.00
2023-04-16T14:47:58.368Z,3.25
2023-04-16T14:50:25.795Z,1.55
2023-04-16T14:52:54.541Z,1.85
2023-04-16T14:55:21.941Z,2.97
2023-04-16T14:57:49.325Z,1.62
2023-04-16T15:00:18.709Z,1.25
2023-04-16T15:02:48.121Z,1.62
2023-04-16T15:05:15.897Z,1.00
2023-04-16T15:07:43.667Z,2.00
2023-04-16T15:10:12.831Z,1.65
2023-04-16T15:12:40.374Z,1.40
2023-04-16T15:15:09.002Z,2.25
2023-04-16T15:17:36.692Z,3.47
2023-04-16T15:20:10.645Z,1.55
2023-04-16T15:22:38.539Z,1.08
2023-04-16T15:25:06.694Z,1.65
2023-04-16T15:27:34.366Z,3.15
2023-04-16T15:30:02.226Z,2.90
2023-04-16T15:32:31.154Z,2.20
2023-04-16T15:34:59.875Z,3.30
2023-04-16T15:37:27.565Z,1.87
2023-04-16T15:39:54.987Z,5.00
2023-04-16T15:42:23.619Z,2.53
2023-04-16T15:44:51.407Z,1.52
2023-04-16T15:47:18.886Z,1.50
2023-04-16T15:49:46.256Z,0.90
2023-04-16T15:52:13.947Z,2.75
2023-04-16T15:54:42.978Z,1.58
2023-04-16T15:57:10.535Z,1.67
2023-04-16T15:59:38.278Z,1.98
2023-04-16T16:02:05.934Z,1.92
2023-04-16T16:04:33.854Z,1.27
2023-04-16T16:07:02.805Z,1.48
2023-04-16T16:09:30.509Z,1.87
2023-04-16T16:11:59.714Z,3.72
2023-04-16T16:14:27.187Z,3.45
2023-04-16T16:16:54.637Z,1.35
2023-04-16T16:19:22.303Z,1.50
2023-04-16T16:21:49.652Z,2.62
2023-04-16T16:24:17.301Z,2.60
2023-04-16T16:26:45.011Z,1.52
2023-04-16T16:29:12.970Z,1.67
2023-04-16T16:31:40.597Z,2.80
2023-04-16T16:34:09.890Z,2.60
2023-04-16T16:36:40.272Z,2.92
2023-04-16T16:39:07.927Z,4.30
2023-04-16T16:41:41.779Z,3.15
2023-04-16T16:44:09.653Z,2.05
2023-04-16T16:46:37.268Z,2.22
2023-04-16T16:49:06.022Z,2.58
2023-04-16T16:51:33.934Z,2.20
2023-04-16T16:54:01.455Z,1.70
2023-04-16T16:56:28.848Z,2.90
2023-04-16T16:58:56.737Z,4.95
2023-04-16T17:01:25.594Z,3.87
2023-04-16T17:03:53.113Z,4.70
2023-04-16T17:06:21.424Z,3.00
2023-04-16T17:08:48.929Z,3.37
2023-04-16T17:11:16.728Z,3.10
2023-04-16T17:13:44.623Z,2.10
2023-04-16T17:16:13.187Z,2.65
2023-04-16T17:18:40.857Z,2.70
2023-04-16T17:21:08.527Z,4.15
2023-04-16T17:23:36.179Z,5.60
2023-04-16T17:26:03.603Z,3.40
2023-04-16T17:28:31.279Z,2.95
2023-04-16T17:30:59.458Z,2.33
2023-04-16T17:33:27.185Z,4.07
2023-04-16T17:35:54.913Z,4.45
2023-04-16T17:38:22.353Z,2.97
2023-04-16T17:40:49.834Z,2.72
2023-04-16T17:43:17.526Z,3.12
2023-04-16T17:45:45.057Z,3.12
2023-04-16T17:48:12.806Z,2.97
2023-04-16T17:50:40.533Z,6.05
2023-04-16T17:53:07.917Z,4.37
2023-04-16T17:55:35.725Z,2.15
2023-04-16T17:58:04.252Z,2.97
2023-04-16T18:00:31.729Z,3.92
2023-04-16T18:03:00.084Z,2.35
2023-04-16T18:05:27.747Z,3.25
2023-04-16T18:07:55.637Z,3.17
2023-04-16T18:10:23.339Z,3.47
2023-04-16T18:12:50.699Z,3.78
2023-04-16T18:15:18.155Z,3.33
2023-04-16T18:17:46.183Z,4.50
2023-04-16T18:20:16.802Z,3.95
2023-04-16T18:22:44.226Z,2.42
2023-04-16T18:25:12.158Z,4.32
2023-04-16T18:27:39.659Z,3.17
2023-04-16T18:30:07.557Z,2.62
2023-04-16T18:32:36.476Z,3.17
2023-04-16T18:35:06.317Z,3.50
2023-04-16T18:37:33.702Z,3.72
2023-04-16T18:40:01.699Z,4.82
2023-04-16T18:42:29.415Z,9.52
2023-04-16T18:44:57.017Z,11.52
2023-04-16T18:47:24.996Z,16.80
2023-04-16T18:49:52.506Z,11.57
2023-04-16T18:52:19.979Z,9.73
2023-04-16T18:54:47.659Z,6.95
2023-04-16T18:57:15.080Z,7.85
2023-04-16T18:59:42.462Z,11.68
2023-04-16T19:02:10.231Z,13.00
2023-04-16T19:04:38.239Z,15.90
2023-04-16T19:07:05.782Z,11.10
2023-04-16T19:09:33.485Z,9.75
2023-04-16T19:12:01.754Z,4.87
2023-04-16T19:14:29.176Z,3.40
2023-04-16T19:16:56.905Z,2.78
2023-04-16T19:19:24.363Z,3.17
2023-04-16T19:21:52.042Z,3.62
2023-04-16T19:24:19.921Z,3.08
2023-04-16T19:26:47.404Z,2.75
2023-04-16T19:29:14.808Z,3.08
2023-04-16T19:31:42.489Z,3.12
2023-04-16T19:34:10.190Z,10.48
2023-04-16T19:36:37.554Z,2.65
2023-04-16T19:39:05.274Z,2.97
2023-04-16T19:41:32.995Z,3.67
2023-04-16T19:44:00.592Z,2.53
2023-04-16T19:46:28.343Z,3.20
2023-04-16T19:48:56.808Z,2.30
2023-04-16T19:51:24.546Z,4.62
2023-04-16T19:53:53.261Z,3.45
2023-04-16T19:56:20.702Z,2.80
2023-04-16T19:58:48.140Z,2.58
2023-04-16T20:01:15.903Z,2.20
2023-04-16T20:03:43.670Z,3.20
2023-04-16T20:06:11.351Z,2.30
2023-04-16T20:08:38.843Z,2.70
2023-04-16T20:11:08.498Z,2.62
2023-04-16T20:13:37.613Z,3.45
2023-04-16T20:16:05.679Z,3.12
2023-04-16T20:18:41.463Z,3.42
2023-04-16T20:21:09.828Z,2.83
2023-04-16T20:23:37.518Z,2.35
2023-04-16T20:26:04.970Z,4.40
2023-04-16T20:28:32.559Z,2.95
2023-04-16T20:31:00.286Z,2.78
2023-04-16T20:33:28.026Z,3.28
2023-04-16T20:35:56.217Z,3.00
2023-04-16T20:38:24.034Z,2.78
2023-04-16T20:40:58.135Z,3.28
2023-04-16T20:43:26.145Z,2.87
2023-04-16T20:45:53.580Z,3.08
2023-04-16T20:48:21.032Z,2.40
2023-04-16T20:50:48.760Z,2.17
2023-04-16T20:53:16.319Z,2.83
2023-04-16T20:55:43.754Z,2.97
2023-04-16T20:58:11.606Z,3.33
2023-04-16T21:00:38.954Z,2.62
2023-04-16T21:03:06.768Z,2.80
2023-04-16T21:05:34.520Z,2.75
2023-04-16T21:08:02.027Z,4.75
2023-04-16T21:10:29.406Z,4.28
2023-04-16T21:12:57.068Z,3.35
2023-04-16T21:15:24.555Z,3.20
2023-04-16T21:17:51.988Z,2.62
2023-04-16T21:20:19.907Z,2.47
2023-04-16T21:22:47.351Z,3.65
2023-04-16T21:25:14.809Z,2.40
2023-04-16T21:27:42.502Z,2.95
2023-04-16T21:30:10.320Z,3.08
2023-04-16T21:32:38.079Z,3.15
2023-04-16T21:35:06.351Z,2.72
2023-04-16T21:37:33.948Z,5.12
2023-04-16T21:40:01.343Z,6.45
2023-04-16T21:42:29.137Z,2.12
2023-04-16T21:44:56.563Z,2.95
2023-04-16T21:47:24.034Z,3.72
2023-04-16T21:49:51.781Z,2.30
2023-04-16T21:52:19.209Z,2.55
2023-04-16T21:54:46.779Z,2.85
2023-04-16T21:57:14.764Z,1.70
2023-04-16T21:59:42.253Z,3.40
2023-04-16T22:02:09.782Z,2.17
2023-04-16T22:04:38.761Z,2.20
2023-04-16T22:07:08.837Z,2.33
2023-04-16T22:09:36.591Z,7.10
2023-04-16T22:12:06.918Z,2.35
2023-04-16T22:14:34.709Z,2.55
2023-04-16T22:17:03.487Z,1.73
2023-04-16T22:19:31.820Z,2.15
2023-04-16T22:21:59.215Z,1.70
2023-04-16T22:24:26.699Z,2.28
2023-04-16T22:26:54.419Z,1.83
2023-04-16T22:29:21.844Z,3.42
2023-04-16T22:31:49.439Z,2.33
2023-04-16T22:34:17.081Z,4.15
2023-04-16T22:36:44.538Z,1.45
2023-04-16T22:39:12.185Z,2.15
2023-04-16T22:41:40.499Z,2.12
2023-04-16T22:44:08.123Z,2.33
2023-04-16T22:46:35.904Z,2.12
2023-04-16T22:49:03.655Z,2.37
2023-04-16T22:51:31.104Z,2.05
2023-04-16T22:53:58.548Z,3.65
2023-04-16T22:56:28.898Z,1.92
2023-04-16T22:58:56.717Z,2.37
2023-04-16T23:01:24.450Z,1.83
2023-04-16T23:03:52.445Z,1.87
2023-04-16T23:06:19.902Z,2.50
2023-04-16T23:08:47.337Z,2.60
2023-04-16T23:11:15.528Z,2.35
2023-04-16T23:13:43.004Z,2.08
2023-04-16T23:16:10.880Z,2.58
2023-04-16T23:18:38.662Z,3.10
2023-04-16T23:21:06.117Z,2.15
2023-04-16T23:23:33.530Z,2.15
2023-04-16T23:26:02.707Z,2.90
2023-04-16T23:28:30.106Z,2.47
2023-04-16T23:30:57.530Z,1.92
2023-04-16T23:33:25.252Z,1.87
2023-04-16T23:35:52.638Z,2.90
2023-04-16T23:38:20.317Z,2.17
2023-04-16T23:40:47.986Z,2.53
2023-04-16T23:43:15.410Z,2.78
2023-04-16T23:45:42.920Z,3.35
2023-04-16T23:48:10.666Z,2.50
2023-04-16T23:50:38.123Z,1.92
2023-04-16T23:53:05.601Z,2.17
2023-04-16T23:55:33.262Z,2.53
2023-04-16T23:58:00.902Z,2.22
